createdAt,value
2023-05-15T00:01:41.902Z,9.48
2023-05-15T00:04:09.788Z,9.43
2023-05-15T00:06:38.199Z,9.36
2023-05-15T00:09:05.915Z,9.37
2023-05-15T00:11:33.697Z,9.34
2023-05-15T00:14:01.384Z,9.31
2023-05-15T00:16:29.203Z,9.26
2023-05-15T00:18:56.956Z,9.23
2023-05-15T00:21:24.767Z,9.21
2023-05-15T00:23:54.102Z,9.19
2023-05-15T00:26:24.170Z,9.19
2023-05-15T00:28:52.042Z,9.19
2023-05-15T00:31:19.815Z,9.12
2023-05-15T00:33:47.658Z,9.11
2023-05-15T00:36:15.338Z,9.09
2023-05-15T00:38:43.211Z,9.09
2023-05-15T00:41:11.987Z,9.09
2023-05-15T00:43:40.855Z,9.06
2023-05-15T00:46:09.532Z,9.04
2023-05-15T00:48:37.708Z,8.99
2023-05-15T00:51:05.895Z,8.99
2023-05-15T00:53:33.543Z,9.03
2023-05-15T00:56:03.460Z,9.02
2023-05-15T00:58:32.246Z,9.03
2023-05-15T01:00:59.968Z,8.97
2023-05-15T01:03:28.023Z,8.91
2023-05-15T01:05:55.726Z,8.94
2023-05-15T01:08:32.265Z,8.91
2023-05-15T01:11:00.576Z,8.82
2023-05-15T01:13:28.269Z,8.74
2023-05-15T01:15:56.258Z,8.76
2023-05-15T01:18:24.088Z,8.78
2023-05-15T01:21:10.303Z,8.77
2023-05-15T01:24:11.243Z,8.84
2023-05-15T01:27:18.365Z,8.81
2023-05-15T01:30:12.974Z,8.80
2023-05-15T01:33:28.076Z,8.89
2023-05-15T01:36:24.607Z,8.96
2023-05-15T01:38:55.900Z,9.06
2023-05-15T01:41:48.744Z,9.01
2023-05-15T01:44:31.542Z,8.99
2023-05-15T01:47:14.991Z,9.07
2023-05-15T01:49:45.681Z,9.17
2023-05-15T01:52:19.523Z,9.15
2023-05-15T01:54:49.961Z,9.18
2023-05-15T01:57:19.415Z,9.15
2023-05-15T01:59:47.899Z,9.20
2023-05-15T02:02:16.141Z,9.30
2023-05-15T02:04:46.205Z,9.33
2023-05-15T02:07:15.084Z,9.26
2023-05-15T02:09:44.370Z,9.38
2023-05-15T02:12:12.416Z,9.56
2023-05-15T02:14:41.581Z,9.65
2023-05-15T02:17:09.258Z,9.43
2023-05-15T02:19:37.197Z,9.44
2023-05-15T02:22:05.164Z,9.51
2023-05-15T02:24:34.394Z,9.59
2023-05-15T02:27:35.475Z,9.56
2023-05-15T02:30:55.516Z,9.49
2023-05-15T02:33:52.964Z,9.42
2023-05-15T02:36:30.909Z,9.35
2023-05-15T02:38:59.730Z,9.43
2023-05-15T02:41:28.237Z,9.49
2023-05-15T02:43:56.503Z,9.60
2023-05-15T02:46:25.675Z,9.60
2023-05-15T02:48:55.089Z,9.68
2023-05-15T02:51:22.934Z,9.75
2023-05-15T02:53:52.171Z,9.79
2023-05-15T02:56:19.892Z,9.80
2023-05-15T02:58:47.585Z,9.79
2023-05-15T03:01:15.405Z,9.78
2023-05-15T03:03:43.078Z,9.87
2023-05-15T03:06:10.728Z,9.97
2023-05-15T03:08:38.386Z,9.85
2023-05-15T03:11:06.244Z,9.92
2023-05-15T03:13:33.937Z,10.04
2023-05-15T03:16:01.794Z,10.12
2023-05-15T03:18:29.447Z,10.20
2023-05-15T03:20:57.288Z,10.23
2023-05-15T03:23:24.993Z,10.28
2023-05-15T03:25:52.663Z,10.30
2023-05-15T03:28:20.317Z,10.31
2023-05-15T03:30:47.997Z,10.34
2023-05-15T03:33:15.874Z,10.26
2023-05-15T03:35:44.744Z,10.29
2023-05-15T03:38:12.411Z,10.37
2023-05-15T03:40:40.974Z,10.38
2023-05-15T03:43:08.642Z,10.42
2023-05-15T03:45:36.803Z,10.48
2023-05-15T03:48:05.221Z,10.51
2023-05-15T03:50:33.340Z,10.55
2023-05-15T03:53:01.368Z,10.48
2023-05-15T03:55:29.300Z,10.52
2023-05-15T03:57:58.083Z,10.37
2023-05-15T04:00:26.147Z,10.40
2023-05-15T04:02:54.203Z,10.39
2023-05-15T04:05:22.706Z,10.39
2023-05-15T04:07:50.553Z,10.35
2023-05-15T04:10:19.132Z,10.36
2023-05-15T04:12:47.905Z,10.28
2023-05-15T04:15:29.234Z,10.31
2023-05-15T04:17:57.093Z,10.28
2023-05-15T04:20:25.974Z,10.27
2023-05-15T04:22:53.973Z,10.30
2023-05-15T04:25:21.823Z,10.30
2023-05-15T04:27:49.563Z,10.28
2023-05-15T04:30:17.627Z,10.25
2023-05-15T04:32:46.336Z,10.33
2023-05-15T04:35:15.334Z,10.37
2023-05-15T04:37:45.891Z,10.43
2023-05-15T04:40:16.727Z,10.47
2023-05-15T04:42:44.796Z,10.51
2023-05-15T04:45:12.768Z,10.42
2023-05-15T04:47:40.877Z,10.49
2023-05-15T04:50:09.254Z,10.44
2023-05-15T04:52:37.147Z,10.48
2023-05-15T04:55:05.586Z,10.47
2023-05-15T04:57:33.273Z,10.42
2023-05-15T05:00:01.279Z,10.33
2023-05-15T05:02:29.057Z,10.35
2023-05-15T05:04:56.735Z,10.28
2023-05-15T05:07:24.438Z,10.18
2023-05-15T05:09:52.160Z,10.10
2023-05-15T05:12:19.893Z,10.17
2023-05-15T05:14:47.620Z,10.20
2023-05-15T05:17:15.564Z,10.14
2023-05-15T05:19:43.296Z,10.13
2023-05-15T05:22:11.478Z,10.17
2023-05-15T05:24:39.219Z,10.25
2023-05-15T05:27:07.239Z,10.30
2023-05-15T05:29:35.139Z,10.32
2023-05-15T05:32:02.863Z,10.37
2023-05-15T05:34:30.567Z,10.40
2023-05-15T05:36:58.228Z,10.36
2023-05-15T05:39:25.999Z,10.46
2023-05-15T05:41:53.707Z,10.49
2023-05-15T05:44:21.367Z,10.35
2023-05-15T05:46:49.400Z,10.32
2023-05-15T05:49:17.039Z,10.32
2023-05-15T05:51:47.073Z,10.30
2023-05-15T05:54:15.164Z,10.36
2023-05-15T05:56:43.015Z,10.39
2023-05-15T05:59:10.802Z,10.51
2023-05-15T06:01:38.705Z,10.61
2023-05-15T06:04:06.519Z,10.73
2023-05-15T06:06:34.671Z,10.87
2023-05-15T06:09:02.378Z,10.98
2023-05-15T06:11:30.058Z,11.05
2023-05-15T06:13:57.710Z,11.14
2023-05-15T06:16:25.518Z,11.23
2023-05-15T06:18:53.318Z,11.30
2023-05-15T06:21:22.404Z,11.42
2023-05-15T06:23:50.076Z,11.52
2023-05-15T06:26:17.979Z,11.59
2023-05-15T06:28:45.760Z,11.71
2023-05-15T06:31:13.431Z,11.81
2023-05-15T06:33:41.334Z,11.85
2023-05-15T06:36:09.275Z,11.86
2023-05-15T06:38:36.917Z,11.82
2023-05-15T06:41:04.787Z,11.84
2023-05-15T06:43:32.526Z,11.84
2023-05-15T06:46:00.461Z,11.85
2023-05-15T06:48:28.284Z,11.81
2023-05-15T06:50:56.001Z,11.83
2023-05-15T06:53:23.772Z,11.87
2023-05-15T06:55:51.477Z,11.88
2023-05-15T06:58:19.382Z,11.90
2023-05-15T07:00:47.114Z,11.90
2023-05-15T07:03:15.772Z,11.99
2023-05-15T07:05:44.511Z,12.07
2023-05-15T07:08:12.188Z,12.14
2023-05-15T07:10:39.936Z,12.15
2023-05-15T07:13:07.695Z,12.09
2023-05-15T07:15:35.442Z,12.07
2023-05-15T07:18:03.322Z,12.13
2023-05-15T07:20:32.594Z,12.21
2023-05-15T07:23:03.291Z,12.29
2023-05-15T07:25:31.243Z,12.46
2023-05-15T07:27:58.938Z,12.63
2023-05-15T07:30:27.004Z,12.79
2023-05-15T07:32:55.106Z,12.86
2023-05-15T07:35:23.366Z,12.92
2023-05-15T07:37:51.242Z,12.94
2023-05-15T07:40:19.011Z,12.92
2023-05-15T07:42:47.102Z,12.92
2023-05-15T07:45:14.813Z,12.64
2023-05-15T07:47:47.216Z,12.62
2023-05-15T07:50:16.040Z,12.66
2023-05-15T07:52:44.320Z,12.59
2023-05-15T07:55:13.542Z,12.39
2023-05-15T07:57:41.330Z,12.37
2023-05-15T08:00:12.854Z,12.26
2023-05-15T08:02:41.085Z,12.32
2023-05-15T08:05:09.080Z,12.24
2023-05-15T08:07:37.033Z,12.35
2023-05-15T08:10:06.401Z,12.44
2023-05-15T08:12:34.466Z,12.44
2023-05-15T08:15:02.169Z,12.49
2023-05-15T08:17:30.009Z,12.16
2023-05-15T08:19:57.808Z,12.07
2023-05-15T08:22:25.544Z,11.86
2023-05-15T08:24:53.206Z,11.84
2023-05-15T08:27:21.012Z,12.07
2023-05-15T08:29:48.643Z,12.05
2023-05-15T08:32:16.326Z,12.30
2023-05-15T08:34:44.501Z,12.26
2023-05-15T08:37:12.287Z,12.28
2023-05-15T08:39:40.224Z,12.45
2023-05-15T08:42:16.484Z,12.52
2023-05-15T08:44:45.628Z,12.67
2023-05-15T08:47:15.332Z,12.84
2023-05-15T08:50:05.648Z,12.84
2023-05-15T08:52:34.327Z,12.77
2023-05-15T08:55:03.590Z,12.93
2023-05-15T08:57:33.442Z,13.00
2023-05-15T09:00:01.308Z,13.13
2023-05-15T09:02:29.357Z,13.23
2023-05-15T09:04:57.083Z,13.33
2023-05-15T09:07:25.619Z,13.42
2023-05-15T09:09:54.630Z,13.40
2023-05-15T09:12:26.135Z,13.49
2023-05-15T09:15:17.951Z,13.51
2023-05-15T09:17:46.298Z,13.37
2023-05-15T09:20:35.690Z,13.12
2023-05-15T09:23:06.261Z,12.94
2023-05-15T09:25:42.671Z,12.94
2023-05-15T09:28:25.566Z,12.82
2023-05-15T09:31:00.269Z,12.82
2023-05-15T09:33:37.794Z,12.88
2023-05-15T09:36:07.867Z,12.88
2023-05-15T09:38:42.688Z,12.85
2023-05-15T09:41:10.628Z,12.81
2023-05-15T09:43:40.293Z,12.70
2023-05-15T09:46:09.622Z,12.45
2023-05-15T09:48:37.554Z,12.40
2023-05-15T09:51:15.212Z,12.44
2023-05-15T09:53:43.242Z,12.27
2023-05-15T09:56:11.000Z,12.22
2023-05-15T09:58:38.652Z,12.27
2023-05-15T10:01:12.365Z,12.27
2023-05-15T10:03:43.759Z,12.14
2023-05-15T10:06:18.952Z,12.08
2023-05-15T10:08:57.681Z,12.08
2023-05-15T10:11:25.949Z,12.00
2023-05-15T10:13:53.631Z,11.92
2023-05-15T10:16:22.698Z,11.98
2023-05-15T10:18:52.790Z,11.88
2023-05-15T10:21:21.596Z,11.92
2023-05-15T10:23:51.088Z,11.98
2023-05-15T10:26:34.128Z,12.13
2023-05-15T10:29:05.711Z,12.20
2023-05-15T10:31:36.300Z,12.11
2023-05-15T10:34:09.033Z,12.05
2023-05-15T10:36:38.515Z,12.06
2023-05-15T10:39:08.232Z,12.08
2023-05-15T10:41:40.563Z,12.09
2023-05-15T10:44:08.667Z,11.97
2023-05-15T10:46:37.252Z,11.88
2023-05-15T10:49:05.477Z,11.76
2023-05-15T10:51:36.110Z,11.68
2023-05-15T10:54:04.326Z,11.71
2023-05-15T10:56:33.907Z,11.64
2023-05-15T10:59:10.490Z,11.55
2023-05-15T11:01:40.629Z,11.47
2023-05-15T11:04:14.951Z,11.44
2023-05-15T11:06:48.889Z,11.48
2023-05-15T11:09:22.836Z,11.47
2023-05-15T11:11:58.229Z,11.36
2023-05-15T11:14:35.349Z,11.25
2023-05-15T11:17:08.949Z,11.07
2023-05-15T11:19:59.093Z,11.14
2023-05-15T11:22:29.180Z,11.08
2023-05-15T11:25:09.139Z,11.02
2023-05-15T11:27:41.767Z,11.04
2023-05-15T11:30:14.179Z,11.01
2023-05-15T11:32:47.755Z,10.98
2023-05-15T11:35:27.207Z,10.96
2023-05-15T11:37:59.323Z,10.88
2023-05-15T11:40:33.005Z,10.74
2023-05-15T11:43:17.852Z,10.76
2023-05-15T11:45:58.963Z,10.80
2023-05-15T11:48:39.574Z,10.66
2023-05-15T11:51:20.418Z,10.67
2023-05-15T11:53:51.766Z,10.70
2023-05-15T11:56:21.645Z,10.73
2023-05-15T11:58:59.584Z,10.71
2023-05-15T12:01:28.318Z,10.78
2023-05-15T12:03:56.351Z,10.82
2023-05-15T12:06:24.456Z,10.83
2023-05-15T12:08:53.757Z,10.76
2023-05-15T12:11:25.456Z,10.73
2023-05-15T12:13:54.597Z,10.75
2023-05-15T12:16:27.087Z,10.79
2023-05-15T12:18:57.831Z,10.85
2023-05-15T12:21:28.988Z,10.78
2023-05-15T12:24:07.228Z,10.74
2023-05-15T12:26:36.540Z,10.74
2023-05-15T12:29:05.452Z,10.69
2023-05-15T12:31:36.595Z,10.69
2023-05-15T12:34:04.745Z,10.71
2023-05-15T12:36:32.673Z,10.76
2023-05-15T12:39:06.491Z,10.77
2023-05-15T12:41:34.407Z,10.75
2023-05-15T12:44:02.075Z,10.74
2023-05-15T12:46:33.048Z,10.86
2023-05-15T12:49:01.743Z,10.86
2023-05-15T12:51:30.092Z,10.83
2023-05-15T12:53:58.400Z,10.79
2023-05-15T12:56:26.448Z,10.78
2023-05-15T12:58:56.057Z,10.71
2023-05-15T13:01:23.783Z,10.71
2023-05-15T13:03:52.309Z,10.70
2023-05-15T13:06:23.622Z,10.65
2023-05-15T13:08:51.828Z,10.73
2023-05-15T13:11:19.585Z,10.78
2023-05-15T13:13:50.204Z,10.72
2023-05-15T13:16:19.503Z,10.78
2023-05-15T13:18:47.501Z,10.72
2023-05-15T13:21:15.389Z,10.71
2023-05-15T13:23:43.167Z,10.72
2023-05-15T13:26:11.088Z,10.71
2023-05-15T13:28:38.852Z,10.70
2023-05-15T13:31:06.574Z,10.73
2023-05-15T13:33:35.754Z,10.77
2023-05-15T13:36:03.732Z,10.81
2023-05-15T13:38:31.444Z,10.82
2023-05-15T13:40:59.293Z,10.91
2023-05-15T13:43:27.418Z,10.88
2023-05-15T13:45:55.531Z,10.85
2023-05-15T13:48:23.295Z,10.94
2023-05-15T13:50:51.156Z,10.81
2023-05-15T13:53:18.923Z,10.87
2023-05-15T13:55:47.215Z,10.95
2023-05-15T13:58:15.424Z,10.90
2023-05-15T14:00:45.077Z,10.91
2023-05-15T14:03:15.113Z,10.89
2023-05-15T14:05:43.294Z,10.73
2023-05-15T14:08:11.097Z,10.75
2023-05-15T14:10:38.909Z,10.70
2023-05-15T14:13:06.892Z,10.74
2023-05-15T14:15:34.522Z,10.76
2023-05-15T14:18:02.265Z,10.83
2023-05-15T14:20:29.915Z,10.85
2023-05-15T14:22:57.735Z,10.87
2023-05-15T14:25:25.641Z,10.95
2023-05-15T14:27:53.278Z,11.05
2023-05-15T14:30:23.035Z,11.12
2023-05-15T14:32:50.819Z,11.19
2023-05-15T14:35:18.558Z,11.25
2023-05-15T14:37:46.337Z,11.26
2023-05-15T14:40:14.088Z,11.24
2023-05-15T14:42:41.733Z,11.22
2023-05-15T14:45:10.215Z,11.31
2023-05-15T14:47:37.893Z,11.23
2023-05-15T14:50:06.212Z,11.22
2023-05-15T14:52:33.929Z,11.21
2023-05-15T14:55:09.229Z,11.22
2023-05-15T14:57:38.413Z,11.09
2023-05-15T15:00:08.239Z,11.07
2023-05-15T15:02:36.036Z,10.99
2023-05-15T15:05:04.684Z,10.93
2023-05-15T15:08:05.598Z,10.89
2023-05-15T15:10:36.636Z,10.94
2023-05-15T15:13:05.895Z,10.93
2023-05-15T15:15:35.099Z,10.94
2023-05-15T15:18:02.990Z,11.07
2023-05-15T15:20:30.928Z,11.09
2023-05-15T15:22:58.594Z,11.11
2023-05-15T15:25:26.565Z,11.12
2023-05-15T15:27:54.457Z,11.11
2023-05-15T15:30:22.123Z,11.01
2023-05-15T15:32:49.969Z,10.98
2023-05-15T15:35:17.843Z,11.04
2023-05-15T15:37:45.810Z,11.07
2023-05-15T15:40:13.735Z,11.08
2023-05-15T15:42:41.350Z,10.96
2023-05-15T15:45:10.016Z,10.99
2023-05-15T15:47:37.787Z,10.91
2023-05-15T15:50:06.158Z,11.01
2023-05-15T15:52:33.905Z,11.13
2023-05-15T15:55:02.434Z,11.17
2023-05-15T15:57:30.458Z,11.18
2023-05-15T15:59:58.252Z,11.18
2023-05-15T16:02:26.299Z,11.08
2023-05-15T16:04:54.234Z,10.88
2023-05-15T16:07:22.026Z,10.81
2023-05-15T16:09:56.849Z,10.74
2023-05-15T16:12:31.752Z,10.66
2023-05-15T16:15:06.812Z,10.68
2023-05-15T16:17:41.670Z,10.78
2023-05-15T16:20:10.788Z,10.82
2023-05-15T16:22:38.556Z,10.93
2023-05-15T16:25:06.760Z,10.87
2023-05-15T16:27:34.457Z,10.87
2023-05-15T16:30:02.145Z,10.87
2023-05-15T16:32:30.052Z,10.83
2023-05-15T16:34:57.693Z,10.88
2023-05-15T16:37:25.569Z,10.81
2023-05-15T16:39:53.279Z,10.77
2023-05-15T16:42:21.055Z,10.70
2023-05-15T16:44:48.895Z,10.67
2023-05-15T16:47:16.580Z,10.65
2023-05-15T16:49:45.342Z,10.65
2023-05-15T16:52:14.692Z,10.61
2023-05-15T16:54:42.550Z,10.59
2023-05-15T16:57:10.560Z,10.57
2023-05-15T16:59:38.253Z,10.64
2023-05-15T17:02:05.923Z,10.67
2023-05-15T17:04:35.279Z,10.76
2023-05-15T17:07:04.376Z,10.56
2023-05-15T17:09:32.897Z,10.55
2023-05-15T17:12:00.876Z,10.49
2023-05-15T17:14:28.649Z,10.47
2023-05-15T17:16:56.335Z,10.41
2023-05-15T17:19:24.332Z,10.42
2023-05-15T17:21:51.985Z,10.39
2023-05-15T17:24:19.605Z,10.43
2023-05-15T17:26:47.219Z,10.42
2023-05-15T17:29:14.844Z,10.39
2023-05-15T17:31:42.536Z,10.36
2023-05-15T17:34:10.200Z,10.35
2023-05-15T17:36:37.858Z,10.35
2023-05-15T17:39:05.597Z,10.38
2023-05-15T17:41:33.222Z,10.38
2023-05-15T17:44:00.858Z,10.39
2023-05-15T17:46:28.631Z,10.38
2023-05-15T17:48:56.389Z,10.36
2023-05-15T17:51:24.263Z,10.33
2023-05-15T17:53:51.891Z,10.34
2023-05-15T17:56:19.613Z,10.28
2023-05-15T17:58:47.244Z,10.29
2023-05-15T18:01:15.660Z,10.29
2023-05-15T18:03:43.528Z,10.32
2023-05-15T18:06:13.470Z,10.37
2023-05-15T18:08:41.541Z,10.38
2023-05-15T18:11:21.564Z,10.39
2023-05-15T18:13:50.403Z,10.39
2023-05-15T18:16:18.929Z,10.30
2023-05-15T18:18:48.691Z,10.23
2023-05-15T18:21:16.532Z,10.21
2023-05-15T18:23:44.582Z,10.20
2023-05-15T18:26:12.256Z,10.22
2023-05-15T18:28:39.966Z,10.30
2023-05-15T18:31:07.904Z,10.28
2023-05-15T18:33:35.682Z,10.32
2023-05-15T18:36:05.913Z,10.26
2023-05-15T18:38:35.309Z,10.24
2023-05-15T18:41:03.418Z,10.17
2023-05-15T18:43:31.077Z,10.22
2023-05-15T18:45:58.822Z,10.22
2023-05-15T18:48:26.703Z,10.22
2023-05-15T18:50:54.440Z,10.23
2023-05-15T18:53:22.286Z,10.16
2023-05-15T18:55:50.197Z,10.17
2023-05-15T18:58:18.682Z,10.19
2023-05-15T19:00:46.414Z,10.14
2023-05-15T19:03:14.112Z,10.13
2023-05-15T19:05:41.825Z,10.10
2023-05-15T19:08:09.526Z,10.08
2023-05-15T19:10:37.424Z,10.11
2023-05-15T19:13:05.058Z,10.11
2023-05-15T19:15:32.787Z,10.08
2023-05-15T19:18:00.488Z,10.06
2023-05-15T19:20:28.344Z,10.02
2023-05-15T19:22:56.368Z,10.04
2023-05-15T19:25:24.390Z,10.03
2023-05-15T19:27:52.144Z,10.01
2023-05-15T19:30:19.997Z,10.02
2023-05-15T19:32:47.685Z,9.97
2023-05-15T19:35:15.610Z,9.97
2023-05-15T19:37:43.288Z,9.94
2023-05-15T19:40:11.460Z,9.89
2023-05-15T19:42:39.144Z,9.91
2023-05-15T19:45:07.627Z,9.85
2023-05-15T19:47:35.549Z,9.88
2023-05-15T19:50:03.593Z,9.86
2023-05-15T19:52:31.292Z,9.83
2023-05-15T19:54:59.164Z,9.78
2023-05-15T19:57:26.932Z,9.78
2023-05-15T19:59:54.614Z,9.71
2023-05-15T20:02:22.402Z,9.68
2023-05-15T20:04:50.136Z,9.66
2023-05-15T20:07:18.420Z,9.64
2023-05-15T20:09:46.103Z,9.59
2023-05-15T20:12:13.777Z,9.59
2023-05-15T20:14:42.089Z,9.56
2023-05-15T20:17:09.846Z,9.53
2023-05-15T20:19:37.499Z,9.53
2023-05-15T20:22:05.458Z,9.50
2023-05-15T20:24:33.660Z,9.47
2023-05-15T20:27:04.462Z,9.42
2023-05-15T20:29:32.234Z,9.43
2023-05-15T20:32:00.383Z,9.45
2023-05-15T20:34:28.205Z,9.48
2023-05-15T20:36:57.365Z,9.46
2023-05-15T20:39:25.693Z,9.52
2023-05-15T20:41:53.424Z,9.45
2023-05-15T20:44:21.081Z,9.40
2023-05-15T20:46:48.815Z,9.41
2023-05-15T20:49:16.562Z,9.39
2023-05-15T20:51:44.636Z,9.34
2023-05-15T20:54:12.273Z,9.31
2023-05-15T20:56:39.986Z,9.30
2023-05-15T20:59:07.683Z,9.27
2023-05-15T21:01:35.495Z,9.26
2023-05-15T21:04:03.323Z,9.24
2023-05-15T21:06:31.404Z,9.20
2023-05-15T21:08:59.058Z,9.16
2023-05-15T21:11:27.953Z,9.11
2023-05-15T21:13:55.687Z,9.08
2023-05-15T21:16:23.437Z,9.09
2023-05-15T21:18:52.590Z,9.06
2023-05-15T21:21:20.680Z,9.04
2023-05-15T21:23:48.620Z,9.03
2023-05-15T21:26:16.731Z,8.98
2023-05-15T21:28:44.506Z,8.91
2023-05-15T21:31:12.339Z,8.90
2023-05-15T21:33:41.372Z,8.89
2023-05-15T21:36:09.439Z,8.92
2023-05-15T21:38:37.116Z,8.91
2023-05-15T21:41:04.816Z,8.91
2023-05-15T21:43:32.538Z,8.83
2023-05-15T21:46:00.721Z,8.80
2023-05-15T21:48:28.488Z,8.77
2023-05-15T21:50:56.794Z,8.76
2023-05-15T21:53:25.816Z,8.74
2023-05-15T21:56:00.214Z,8.69
2023-05-15T21:58:28.556Z,8.71
2023-05-15T22:00:56.226Z,8.70
2023-05-15T22:03:24.297Z,8.66
2023-05-15T22:05:52.943Z,8.61
2023-05-15T22:08:21.669Z,8.59
2023-05-15T22:10:49.843Z,8.65
2023-05-15T22:13:17.755Z,8.64
2023-05-15T22:15:45.604Z,8.62
2023-05-15T22:18:13.819Z,8.64
2023-05-15T22:20:44.450Z,8.59
2023-05-15T22:23:12.317Z,8.60
2023-05-15T22:25:40.103Z,8.60
2023-05-15T22:28:07.832Z,8.58
2023-05-15T22:30:35.532Z,8.58
2023-05-15T22:33:03.286Z,8.54
2023-05-15T22:35:30.936Z,8.51
2023-05-15T22:37:58.593Z,8.46
2023-05-15T22:40:26.442Z,8.47
2023-05-15T22:42:54.354Z,8.49
2023-05-15T22:45:21.988Z,8.47
2023-05-15T22:47:49.818Z,8.49
2023-05-15T22:50:17.599Z,8.47
2023-05-15T22:52:45.361Z,8.43
2023-05-15T22:55:13.226Z,8.42
2023-05-15T22:57:41.044Z,8.41
2023-05-15T23:00:09.813Z,8.41
2023-05-15T23:02:38.555Z,8.39
2023-05-15T23:05:06.680Z,8.37
2023-05-15T23:07:34.523Z,8.34
2023-05-15T23:10:02.395Z,8.35
2023-05-15T23:12:30.646Z,8.36
2023-05-15T23:14:58.311Z,8.34
2023-05-15T23:17:26.608Z,8.37
2023-05-15T23:19:54.567Z,8.36
2023-05-15T23:22:22.448Z,8.30
2023-05-15T23:24:50.376Z,8.28
2023-05-15T23:27:18.062Z,8.27
2023-05-15T23:29:46.343Z,8.30
2023-05-15T23:32:14.001Z,8.30
2023-05-15T23:34:41.742Z,8.23
2023-05-15T23:37:09.776Z,8.22
2023-05-15T23:39:37.481Z,8.16
2023-05-15T23:42:05.415Z,8.17
2023-05-15T23:44:33.139Z,8.16
2023-05-15T23:47:01.023Z,8.12
2023-05-15T23:49:28.895Z,8.12
2023-05-15T23:51:56.569Z,8.07
2023-05-15T23:54:24.292Z,8.07
2023-05-15T23:56:52.132Z,8.05
2023-05-15T23:59:19.809Z,8.05
